Ciudad Victoria Airport, Mexico

9:05 AM CST on March 30, 2015 (GMT -0600)
Ciudad Victoria | | Change Station
CLOSE
Current Station
Airport
Location: Ciudad Victoria,
Elevation: 781 ft
Nearby Weather Stations

Elev 781 ft 23.70 °N, 98.96 °W | Updated 24 minutes ago

Clear
Clear
68 °F
Feels Like 68 °F
N
5
Wind Variable Wind from SW

Today
High -- | Low -- °F
--% Chance of Precip.
Yesterday
High -- | Low -- °F
Precip. -- in
6:30 AM 6:50 PM
Waxing Gibbous, 80% visible
Pressure 30.14 in
Visibility 10.0 miles
Clouds Clear
Dew Point 63 °F
Humidity 83%
Rainfall 0.00 in
Snow Depth Not available.
UV 3 out of 12
Pollen Not available.
Air Quality Not available.
Flu Activity Not available.
METAR MMCV 301441Z 22004KT 10SM SKC 20/17 A3013 RMK SLP207 52027 900 ISOL ST

More Conditions Fewer Conditions

Pressure 30.14 in
Visibility 10.0 miles
Clouds Clear
Dew Point 63 °F
Humidity 83%
Rainfall 0.00 in
Snow Depth Not available.
UV 3 out of 12
Pollen Not available.
Air Quality Not available.
Flu Activity Not available.
METAR MMCV 301441Z 22004KT 10SM SKC 20/17 A3013 RMK SLP207 52027 900 ISOL ST

More Conditions Fewer Conditions

10-Day Weather Forecast

Almanac

Astronomy

Mar. 30, 2015 Rise Set
Actual Time
Civil Twilight
Nautical Twilight
Astronomical Twilight
Moon
Length of Visible Light
Length of Day
Tomorrow will be .
, % of the Moon is Illuminated

Today's Extremes

Country Highs Country Lows

Community

WunderPhotos

Upload Photos

1,809,513 photos uploaded!

WunderBlogs® & News

Nearby

Air Quality

  Air Quality AQ Index Pollutant
Not available.

Snow Depth

Station Depth Elevation

Earthquake Activity

City Distance Mag. Time & Date
Minimum magnitude displayed is 2.5.

Coastal Water Temperatures

Place Temperature

Stations

Nearby Weather Stations

Station Location Temp. Windchill Dew Point Humidity Wind Precip. Elev Updated Type